首页
METAR-TAF:

METAR-TAF

机场 :

印多尔, 印度

纬度: 22-43N, 经度: 075-48E, 海拔: 561米

当前天气观测

该预报发布于23分钟前的01:00 UTC
风速6节,风向西
温度 26°C
湿度 74%
气压 1009 hPa
能見度: 6000
少量云层高于2000英尺
散云层高于10000英尺

METAR: VAID 170100Z 28006KT 6000 FEW020 SCT100 26/21 Q1009 NOSIG

时间: 06:53 (01:23 UTC)

预报

该预报发布于2小时和23分钟前的23:00 UTC
预报有效从17日的 00点(UTC)到 17日的 09点(UTC)
风速10节,风向西南
能見度: 5000
散云层高于2000英尺
散云层高于10000英尺
小雨, 霾
成为
从 17日的 04点(UTC)到 17日的 06点(UTC)
风速10节,风向西
能見度: 6000

TAF: VAID 162300Z 1700/1709 23010KT 5000 -RA HZ SCT020 SCT100 BECMG 1704/1706 27010KT 6000

超过4000个机场的气象观测和天气预报(METAR&TAF报告)。

可查询的气象台以黄色和红色小点在地图上表示。

将鼠标移到小点上方,可查看气象台名称。

然后点击查看天气观测和预报。

如需切换地图:点击带黑十字的绿色按钮放大地图;点击带横线的绿色按钮缩小地图;或者点击绿色箭头查看邻近地区的地图。


METAR-TAF: